Time;durP1;ratioP1;P1;durP2;ratioP2;P2;SDS_P1;SDS_P2;PMS_P1;PMS_P2;Temp;Humidity;BMP_temperature;BMP_pressure;BME280_temperature;BME280_humidity;BME280_pressure;Samples;Min_cycle;Max_cycle;Signal;HPM_P1;HPM_P2
2023/02/08 00:00:52;;;;;;;13.07;0.82;;;;;;;2.37;73.00;103221.84;5025607;28;20459;-82
2023/02/08 00:03:21;;;;;;;5.72;0.93;;;;;;;2.53;73.22;103262.25;5024523;28;20041;-81
2023/02/08 00:05:48;;;;;;;10.73;0.90;;;;;;;2.53;73.70;103258.78;5026040;28;20091;-80
2023/02/08 00:08:14;;;;;;;9.75;1.08;;;;;;;2.54;73.17;103261.47;5029077;28;20045;-81
2023/02/08 00:10:42;;;;;;;11.13;1.00;;;;;;;2.51;73.47;103265.56;5029811;28;20057;-81
2023/02/08 00:13:08;;;;;;;5.30;1.10;;;;;;;2.55;73.49;103275.22;5029859;28;20050;-81
2023/02/08 00:15:35;;;;;;;7.07;2.65;;;;;;;2.35;73.06;103249.22;5024727;28;20064;-81
2023/02/08 00:18:02;;;;;;;6.47;1.52;;;;;;;2.55;73.56;103283.84;5018416;28;20038;-81
2023/02/08 00:20:30;;;;;;;7.85;1.02;;;;;;;2.56;73.18;103290.81;5025624;28;20046;-81
2023/02/08 00:22:57;;;;;;;10.95;0.85;;;;;;;2.54;73.39;103296.69;5026463;28;20049;-81
2023/02/08 00:25:24;;;;;;;11.15;0.93;;;;;;;2.56;73.93;103289.91;5030189;28;20402;-81
2023/02/08 00:27:51;;;;;;;6.78;0.98;;;;;;;2.57;73.77;103286.53;5027697;28;20046;-81
2023/02/08 00:30:18;;;;;;;10.25;0.88;;;;;;;2.57;73.76;103284.84;5026661;28;20044;-81
2023/02/08 00:32:45;;;;;;;6.40;0.82;;;;;;;2.58;73.78;103285.72;5028574;28;20041;-81
2023/02/08 00:35:12;;;;;;;9.13;0.85;;;;;;;2.58;73.43;103277.97;5027980;28;20052;-80
2023/02/08 00:37:40;;;;;;;6.00;0.65;;;;;;;2.58;73.33;103277.97;5032287;28;20060;-81
2023/02/08 00:40:08;;;;;;;5.47;0.57;;;;;;;2.59;73.50;103279.75;5030211;28;20071;-81
2023/02/08 00:42:35;;;;;;;10.50;1.38;;;;;;;2.58;73.82;103268.53;5028549;28;20061;-81
2023/02/08 00:45:02;;;;;;;9.75;1.23;;;;;;;2.58;73.65;103272.81;5029875;28;20056;-81
2023/02/08 00:47:29;;;;;;;12.35;1.27;;;;;;;2.45;73.80;103251.53;5024452;28;20077;-81
2023/02/08 00:49:56;;;;;;;11.98;1.20;;;;;;;2.60;73.40;103266.94;5029006;28;20052;-81
2023/02/08 00:52:23;;;;;;;11.13;1.50;;;;;;;2.57;73.91;103259.03;5033243;28;20045;-81
2023/02/08 00:54:51;;;;;;;16.83;1.30;;;;;;;2.61;73.27;103258.38;5031789;28;20048;-81
2023/02/08 00:57:18;;;;;;;15.88;1.77;;;;;;;2.62;73.95;103251.56;5030549;28;20038;-81
2023/02/08 00:59:45;;;;;;;13.07;1.00;;;;;;;2.62;73.34;103254.13;5035373;28;20047;-81
2023/02/08 01:02:12;;;;;;;12.05;0.82;;;;;;;2.63;73.32;103253.31;5024701;28;20056;-81
2023/02/08 01:04:39;;;;;;;13.65;1.88;;;;;;;2.64;73.63;103262.81;5026378;28;20041;-81
2023/02/08 01:07:06;;;;;;;13.10;0.90;;;;;;;2.61;73.85;103248.06;5027706;28;20042;-81
2023/02/08 01:09:34;;;;;;;4.53;1.45;;;;;;;2.64;73.91;103257.66;5031603;28;20045;-81
2023/02/08 01:12:02;;;;;;;10.02;1.02;;;;;;;2.64;73.42;103258.53;5034502;28;20042;-81
2023/02/08 01:14:29;;;;;;;13.57;0.88;;;;;;;2.63;73.75;103259.38;5032749;28;20045;-81
2023/02/08 01:16:56;;;;;;;9.90;1.27;;;;;;;2.65;74.00;103265.50;5033216;28;20474;-81
2023/02/08 01:19:23;;;;;;;7.97;1.02;;;;;;;2.66;73.77;103256.94;5033244;28;20051;-81
2023/02/08 01:21:50;;;;;;;19.00;1.20;;;;;;;2.67;73.74;103253.53;5029302;28;20053;-81
2023/02/08 01:24:17;;;;;;;8.68;0.95;;;;;;;2.66;74.03;103251.78;5031812;28;20041;-81
2023/02/08 01:26:44;;;;;;;6.85;0.95;;;;;;;2.68;73.87;103259.63;5027936;28;20045;-81
2023/02/08 01:29:13;;;;;;;9.38;1.00;;;;;;;2.67;73.51;103242.34;5044010;28;20049;-81
2023/02/08 01:31:41;;;;;;;9.13;1.63;;;;;;;2.66;74.09;103228.56;5033611;28;20045;-81
2023/02/08 01:34:09;;;;;;;12.27;1.13;;;;;;;2.68;73.67;103238.97;5033051;28;20050;-81
2023/02/08 01:36:36;;;;;;;19.92;1.30;;;;;;;2.68;74.32;103255.34;5032778;28;20046;-81
2023/02/08 01:39:05;;;;;;;10.95;1.05;;;;;;;2.68;74.00;103245.03;5022947;28;20045;-80
2023/02/08 01:41:34;;;;;;;8.18;0.98;;;;;;;2.69;74.10;103246.78;5026953;28;20087;-81
2023/02/08 01:44:05;;;;;;;5.10;0.80;;;;;;;2.69;74.50;103251.94;5029010;28;20056;-81
2023/02/08 01:46:35;;;;;;;17.70;1.35;;;;;;;2.71;74.42;103246.88;5034465;28;20095;-81
2023/02/08 01:49:16;;;;;;;22.48;2.42;;;;;;;2.71;74.00;103249.47;5031575;28;20141;-81
2023/02/08 01:51:45;;;;;;;5.88;1.50;;;;;;;2.68;73.83;103238.97;5028144;28;20096;-81
2023/02/08 01:54:15;;;;;;;8.40;1.52;;;;;;;2.72;74.26;103240.91;5027247;28;20075;-81
2023/02/08 01:56:44;;;;;;;11.95;2.30;;;;;;;2.74;73.75;103239.28;5032351;28;20045;-81
2023/02/08 01:59:20;;;;;;;15.35;1.27;;;;;;;2.75;74.55;103232.44;5025977;28;20087;-81
2023/02/08 02:01:51;;;;;;;20.85;4.25;;;;;;;2.76;73.97;103231.63;5031425;28;20054;-81
2023/02/08 02:04:18;;;;;;;22.98;2.30;;;;;;;2.75;74.53;103241.06;5024897;28;20050;-81
2023/02/08 02:06:49;;;;;;;23.13;2.70;;;;;;;2.76;74.02;103234.19;5030325;28;20045;-81
2023/02/08 02:09:20;;;;;;;19.02;2.35;;;;;;;2.74;74.51;103234.13;5035104;28;20053;-81
2023/02/08 02:11:49;;;;;;;21.58;2.08;;;;;;;2.77;74.22;103239.47;5031855;28;20056;-81
2023/02/08 02:14:17;;;;;;;12.90;2.38;;;;;;;2.78;74.10;103241.22;5030576;28;20055;-80
2023/02/08 02:16:44;;;;;;;23.40;2.83;;;;;;;2.78;74.13;103241.22;5028344;28;20046;-81
2023/02/08 02:19:21;;;;;;;17.10;2.47;;;;;;;2.80;74.89;103241.31;5029158;28;20043;-81
2023/02/08 02:22:04;;;;;;;26.05;3.45;;;;;;;2.79;74.96;103240.44;5018197;28;20400;-80
2023/02/08 02:25:12;;;;;;;23.55;3.08;;;;;;;2.81;74.35;103240.50;5031403;28;20037;-81
2023/02/08 02:27:55;;;;;;;14.40;2.80;;;;;;;2.81;74.75;103251.72;4993626;28;20050;-81
2023/02/08 02:31:05;;;;;;;13.98;2.45;;;;;;;2.82;74.21;103261.25;5025400;28;20056;-81
2023/02/08 02:33:55;;;;;;;11.45;2.47;;;;;;;2.72;74.42;103243.47;5023957;28;20158;-81
2023/02/08 02:36:33;;;;;;;21.10;2.80;;;;;;;2.82;74.14;103250.91;5021286;28;20494;-81
2023/02/08 02:39:09;;;;;;;21.52;2.85;;;;;;;2.84;74.15;103249.28;5030291;28;20690;-80
2023/02/08 02:44:39;;;;;;;14.93;2.33;;;;;;;2.85;74.54;103256.25;5025301;28;20061;-81
2023/02/08 02:47:18;;;;;;;21.48;3.67;;;;;;;2.89;74.57;103265.03;5035188;28;20045;-81
2023/02/08 02:49:51;;;;;;;18.48;3.00;;;;;;;2.89;74.49;103260.75;5028839;28;20055;-81
2023/02/08 02:52:24;;;;;;;15.27;2.92;;;;;;;2.89;74.35;103270.19;5032562;28;20072;-81
2023/02/08 02:54:54;;;;;;;19.73;2.40;;;;;;;2.91;74.64;103259.16;5025737;28;20068;-81
2023/02/08 02:57:26;;;;;;;22.83;3.55;;;;;;;2.87;74.58;103252.03;5026625;28;20072;-81
2023/02/08 02:59:53;;;;;;;17.00;2.80;;;;;;;2.92;74.10;103260.03;5025152;28;20049;-81
2023/02/08 03:02:21;;;;;;;18.83;4.22;;;;;;;2.88;74.72;103252.94;5026055;28;20042;-81
2023/02/08 03:04:53;;;;;;;16.08;2.95;;;;;;;2.86;74.67;103257.13;5028947;28;20041;-81
2023/02/08 03:07:43;;;;;;;14.55;3.30;;;;;;;2.93;74.28;103264.38;5027800;28;20046;-82
2023/02/08 03:10:24;;;;;;;10.93;3.28;;;;;;;2.91;74.50;103258.25;5030710;28;20045;-81
2023/02/08 03:12:58;;;;;;;18.42;2.78;;;;;;;2.96;74.48;103255.91;5026136;28;20123;-77
2023/02/08 03:15:33;;;;;;;20.58;4.70;;;;;;;2.96;74.51;103253.31;5025815;28;20052;-77
2023/02/08 03:18:12;;;;;;;11.73;3.97;;;;;;;2.97;74.67;103252.53;5023548;28;20052;-77
2023/02/08 03:20:44;;;;;;;20.00;3.92;;;;;;;2.97;74.74;103253.41;5022654;28;20509;-77
2023/02/08 03:23:19;;;;;;;13.23;2.67;;;;;;;2.94;74.17;103248.09;5029962;28;20093;-78
2023/02/08 03:25:52;;;;;;;15.23;3.20;;;;;;;2.97;74.43;103249.94;5025042;28;20496;-78
2023/02/08 03:28:26;;;;;;;25.23;4.72;;;;;;;2.98;74.86;103260.34;5028775;28;20493;-77
2023/02/08 03:31:03;;;;;;;21.58;4.72;;;;;;;2.99;74.96;103261.22;5026119;28;20410;-77
2023/02/08 03:33:35;;;;;;;27.02;4.38;;;;;;;2.99;74.47;103253.47;5027459;28;20406;-77
2023/02/08 03:36:08;;;;;;;16.50;3.85;;;;;;;2.95;74.75;103254.13;5024436;28;20056;-77
2023/02/08 03:38:38;;;;;;;19.90;3.78;;;;;;;2.99;74.54;103256.06;5023178;28;20045;-78
2023/02/08 03:41:09;;;;;;;23.02;4.65;;;;;;;3.01;74.45;103257.03;5025007;28;20045;-77
2023/02/08 03:43:40;;;;;;;19.88;3.50;;;;;;;2.91;74.81;103251.41;5027261;28;20042;-77
2023/02/08 03:46:11;;;;;;;22.17;2.97;;;;;;;3.02;74.96;103266.59;5021213;28;20041;-77
2023/02/08 03:48:42;;;;;;;14.25;2.83;;;;;;;3.02;74.81;103264.88;5032187;28;20056;-77
2023/02/08 03:51:10;;;;;;;12.02;3.55;;;;;;;3.02;74.69;103267.47;5035263;28;20049;-78
2023/02/08 03:53:39;;;;;;;14.13;3.53;;;;;;;3.02;74.54;103261.41;5021270;28;20042;-74
2023/02/08 03:56:13;;;;;;;16.02;3.97;;;;;;;3.03;74.69;103273.50;5016138;28;20057;-74
2023/02/08 03:58:46;;;;;;;13.18;3.15;;;;;;;2.97;74.79;103265.44;5015009;28;20042;-74
2023/02/08 04:01:18;;;;;;;17.45;3.60;;;;;;;2.97;74.74;103268.91;5012538;28;20055;-74
2023/02/08 04:03:48;;;;;;;20.08;3.65;;;;;;;3.05;74.72;103282.22;5017281;28;20046;-74
2023/02/08 04:06:17;;;;;;;14.13;3.83;;;;;;;3.06;74.68;103287.47;5018763;28;20049;-74
2023/02/08 04:08:44;;;;;;;14.20;2.40;;;;;;;3.06;74.28;103289.16;5018673;28;20049;-74
2023/02/08 04:11:11;;;;;;;15.38;3.20;;;;;;;3.07;74.76;103286.66;5018947;28;20048;-74
2023/02/08 04:13:38;;;;;;;14.07;2.83;;;;;;;3.05;74.34;103282.22;5017315;28;20045;-74
2023/02/08 04:16:05;;;;;;;12.80;2.72;;;;;;;3.08;74.40;103284.97;5016505;28;20041;-73
2023/02/08 04:18:32;;;;;;;20.80;3.45;;;;;;;3.08;74.39;103282.41;5025042;28;20047;-74
2023/02/08 04:20:59;;;;;;;11.77;2.85;;;;;;;3.08;74.99;103293.59;5021335;28;20049;-74
2023/02/08 04:23:27;;;;;;;12.38;2.55;;;;;;;3.09;74.42;103297.06;5020792;28;20053;-74
2023/02/08 04:25:54;;;;;;;23.27;3.78;;;;;;;3.10;74.55;103294.59;5022604;28;20501;-74
2023/02/08 04:28:21;;;;;;;10.85;3.17;;;;;;;3.11;74.76;103290.31;5021307;28;20052;-74
2023/02/08 04:30:48;;;;;;;23.55;4.80;;;;;;;3.12;74.83;103294.66;5022099;28;20048;-74
2023/02/08 04:33:14;;;;;;;15.75;3.60;;;;;;;3.13;74.68;103299.91;5023927;28;20433;-74
2023/02/08 04:35:41;;;;;;;25.40;2.67;;;;;;;3.08;74.81;103282.41;5022858;28;20038;-74
2023/02/08 04:38:10;;;;;;;11.98;3.25;;;;;;;3.12;74.50;103284.31;5025459;28;20038;-75
2023/02/08 04:40:38;;;;;;;17.13;2.95;;;;;;;3.12;74.67;103287.78;5020956;28;20042;-74
2023/02/08 04:43:05;;;;;;;12.65;2.33;;;;;;;3.14;74.78;103299.09;5021873;28;20417;-73
2023/02/08 04:45:32;;;;;;;15.65;3.00;;;;;;;3.14;74.44;103309.41;4979482;28;20047;-73
2023/02/08 04:48:00;;;;;;;14.75;3.08;;;;;;;3.15;74.85;103315.47;4981849;28;20042;-74
2023/02/08 04:50:27;;;;;;;14.50;2.95;;;;;;;3.16;74.43;103322.44;4985552;28;20423;-74
2023/02/08 04:52:54;;;;;;;11.30;2.20;;;;;;;3.17;74.39;103308.69;4979283;28;20051;-74
2023/02/08 04:55:21;;;;;;;10.07;2.40;;;;;;;3.17;74.82;103303.53;4981627;28;20058;-73
2023/02/08 04:57:49;;;;;;;12.82;3.13;;;;;;;3.18;74.40;103312.16;4980947;28;20073;-74
2023/02/08 05:00:17;;;;;;;10.32;2.80;;;;;;;3.18;74.73;103323.38;4980396;28;20046;-74
2023/02/08 05:02:44;;;;;;;12.45;2.72;;;;;;;3.18;74.73;103325.94;4981429;28;20081;-74
2023/02/08 05:05:11;;;;;;;20.50;3.05;;;;;;;3.18;74.71;103315.63;4983788;28;20499;-73
2023/02/08 05:07:38;;;;;;;17.20;2.45;;;;;;;3.19;74.65;103307.09;4982960;28;20049;-74
2023/02/08 05:10:06;;;;;;;17.80;3.25;;;;;;;3.17;74.55;103297.47;4986066;28;20052;-74
2023/02/08 05:12:32;;;;;;;12.70;3.45;;;;;;;3.20;74.27;103303.69;4982047;28;20061;-74
2023/02/08 05:15:01;;;;;;;20.48;3.42;;;;;;;3.20;74.47;103298.53;4981898;28;20046;-74
2023/02/08 05:17:27;;;;;;;14.38;3.17;;;;;;;3.21;74.67;103302.88;4983358;28;20050;-74
2023/02/08 05:19:54;;;;;;;15.80;3.40;;;;;;;3.14;74.46;103285.28;4983873;28;20066;-74
2023/02/08 05:22:21;;;;;;;9.30;3.40;;;;;;;3.20;74.84;103293.34;4981849;28;20046;-74
2023/02/08 05:24:48;;;;;;;14.45;3.92;;;;;;;3.20;74.83;103295.94;4982354;28;20057;-74
2023/02/08 05:27:15;;;;;;;17.52;3.10;;;;;;;3.18;74.63;103294.06;4980276;28;20050;-74
2023/02/08 05:29:42;;;;;;;11.80;3.58;;;;;;;3.22;74.76;103299.50;4978376;28;20073;-74
2023/02/08 05:32:11;;;;;;;18.88;4.15;;;;;;;3.22;74.34;103298.63;4978757;28;20082;-75
2023/02/08 05:34:38;;;;;;;29.05;4.90;;;;;;;3.22;74.50;103301.19;4975000;28;20047;-74
2023/02/08 05:37:05;;;;;;;17.70;3.70;;;;;;;3.21;74.67;103300.28;4978087;28;20046;-74
2023/02/08 05:39:32;;;;;;;11.20;4.22;;;;;;;3.24;74.54;103294.38;4980664;28;20053;-75
2023/02/08 05:41:59;;;;;;;22.45;3.90;;;;;;;3.23;74.59;103293.50;4981963;28;20045;-75
2023/02/08 05:44:26;;;;;;;13.40;3.55;;;;;;;3.25;74.74;103297.06;5002893;28;20096;-75
2023/02/08 05:46:53;;;;;;;17.73;3.85;;;;;;;3.24;74.64;103295.28;5024711;28;20057;-76
2023/02/08 05:49:21;;;;;;;17.75;4.35;;;;;;;3.14;74.83;103257.75;5019343;28;20049;-74
2023/02/08 05:51:49;;;;;;;15.15;3.72;;;;;;;3.03;74.72;103242.53;5023402;28;20045;-75
2023/02/08 05:54:16;;;;;;;17.38;3.95;;;;;;;3.26;74.69;103279.88;5020089;28;20057;-75
2023/02/08 05:56:43;;;;;;;14.55;5.38;;;;;;;3.23;74.31;103265.09;5019923;28;20063;-75
2023/02/08 05:59:10;;;;;;;19.67;4.65;;;;;;;3.24;74.52;103277.19;5016791;28;20047;-77
2023/02/08 06:01:37;;;;;;;13.00;3.42;;;;;;;3.27;74.95;103285.13;5012932;28;20042;-75
2023/02/08 06:04:04;;;;;;;21.08;3.88;;;;;;;3.28;74.82;103286.00;5016233;28;20053;-75
2023/02/08 06:06:32;;;;;;;17.67;5.40;;;;;;;3.28;74.79;103276.56;5016600;28;20046;-75
2023/02/08 06:08:59;;;;;;;26.00;4.35;;;;;;;3.27;74.84;103285.13;5018115;28;20448;-75
2023/02/08 06:11:26;;;;;;;17.88;4.05;;;;;;;3.28;74.68;103286.91;5022871;28;20056;-74
2023/02/08 06:13:53;;;;;;;19.88;4.22;;;;;;;3.29;74.69;103273.16;5017201;28;20045;-74
2023/02/08 06:16:20;;;;;;;19.08;4.50;;;;;;;3.29;74.80;103259.38;5018316;28;20042;-76
2023/02/08 06:18:47;;;;;;;25.77;5.00;;;;;;;3.29;74.98;103268.00;5016342;28;20086;-74
2023/02/08 06:21:14;;;;;;;22.08;4.80;;;;;;;3.28;75.08;103263.66;5019637;28;20052;-73
2023/02/08 06:23:42;;;;;;;14.93;4.30;;;;;;;3.29;74.57;103254.19;5021555;28;20056;-73
2023/02/08 06:26:09;;;;;;;21.08;4.30;;;;;;;3.29;74.71;103265.41;5018270;28;20619;-74
2023/02/08 06:28:36;;;;;;;15.65;5.32;;;;;;;3.30;74.98;103276.63;5018757;28;20042;-73
2023/02/08 06:31:03;;;;;;;21.92;5.60;;;;;;;3.31;74.86;103263.81;5021379;28;20055;-73
2023/02/08 06:33:29;;;;;;;23.17;4.93;;;;;;;3.31;74.65;103268.97;5018376;28;20050;-74
2023/02/08 06:35:56;;;;;;;11.15;4.53;;;;;;;3.32;75.07;103265.56;5017308;28;20906;-74
2023/02/08 06:38:23;;;;;;;25.17;5.22;;;;;;;3.33;74.99;103264.78;5012277;28;20052;-76
2023/02/08 06:40:51;;;;;;;16.55;4.18;;;;;;;3.33;75.00;103261.28;5016718;28;20042;-76
2023/02/08 06:43:19;;;;;;;19.33;4.80;;;;;;;3.33;75.00;103264.78;5016057;28;20390;-76
2023/02/08 06:45:46;;;;;;;20.75;5.75;;;;;;;3.34;75.01;103263.97;5020756;28;20045;-76
2023/02/08 06:48:13;;;;;;;25.48;5.38;;;;;;;3.35;75.06;103260.56;5020565;28;20051;-76
2023/02/08 06:50:40;;;;;;;16.88;6.55;;;;;;;3.35;75.10;103270.88;5020862;28;20052;-76
2023/02/08 06:53:07;;;;;;;18.33;5.55;;;;;;;3.36;74.62;103272.69;5016745;28;20057;-75
2023/02/08 06:55:34;;;;;;;22.25;4.45;;;;;;;3.35;74.46;103260.56;5019868;28;20047;-76
2023/02/08 06:58:02;;;;;;;28.48;5.20;;;;;;;3.36;74.75;103275.25;5022060;28;20596;-77
2023/02/08 07:00:29;;;;;;;21.63;5.40;;;;;;;3.37;75.00;103268.41;5021516;28;20046;-75
2023/02/08 07:02:56;;;;;;;17.33;4.90;;;;;;;3.37;74.87;103265.81;5021548;28;20411;-76
2023/02/08 07:05:22;;;;;;;24.00;5.32;;;;;;;3.37;74.79;103258.94;5018006;28;20042;-76
2023/02/08 07:07:49;;;;;;;20.65;5.32;;;;;;;3.38;74.81;103268.44;5015416;28;20046;-75
2023/02/08 07:10:16;;;;;;;27.70;6.15;;;;;;;3.39;75.23;103261.63;5020866;28;20136;-76
2023/02/08 07:12:43;;;;;;;23.80;5.88;;;;;;;3.39;75.29;103269.38;5019213;28;20041;-76
2023/02/08 07:15:13;;;;;;;26.65;5.00;;;;;;;3.40;75.21;103271.13;5018061;28;20052;-75
2023/02/08 07:17:40;;;;;;;24.60;5.22;;;;;;;3.39;75.11;103261.63;5023409;28;20052;-76
2023/02/08 07:20:07;;;;;;;20.42;5.78;;;;;;;3.39;75.18;103271.94;5022576;28;20042;-75
2023/02/08 07:22:35;;;;;;;17.20;4.93;;;;;;;3.34;75.11;103268.25;5018858;28;20052;-76
2023/02/08 07:25:01;;;;;;;15.93;4.90;;;;;;;3.41;74.99;103272.91;5023300;28;20442;-76
2023/02/08 07:27:28;;;;;;;20.83;6.18;;;;;;;3.40;75.13;103278.88;5021403;28;20045;-76
2023/02/08 07:29:55;;;;;;;19.15;6.30;;;;;;;3.16;74.94;103234.63;5019350;28;20046;-76
2023/02/08 07:32:24;;;;;;;23.70;5.03;;;;;;;3.44;74.88;103283.38;5019272;28;20045;-76
2023/02/08 07:34:50;;;;;;;13.70;3.80;;;;;;;3.45;74.88;103280.00;5018729;28;20045;-76
2023/02/08 07:37:17;;;;;;;15.40;4.53;;;;;;;3.46;74.93;103275.72;5018113;28;20490;-76
2023/02/08 07:39:44;;;;;;;17.35;4.45;;;;;;;3.47;75.32;103290.41;5019864;28;20050;-75
2023/02/08 07:42:11;;;;;;;23.58;5.10;;;;;;;3.47;74.86;103283.56;5022682;28;20048;-76
2023/02/08 07:44:39;;;;;;;14.75;4.25;;;;;;;3.48;75.23;103285.34;5016455;28;20058;-75
2023/02/08 07:47:06;;;;;;;14.75;4.82;;;;;;;3.48;74.82;103274.13;5021123;28;20071;-75
2023/02/08 07:49:34;;;;;;;20.60;4.88;;;;;;;3.41;74.96;103266.84;5022671;28;20570;-77
2023/02/08 07:52:02;;;;;;;18.23;4.75;;;;;;;3.49;75.36;103279.34;5023534;28;20045;-76
2023/02/08 07:54:29;;;;;;;21.67;4.57;;;;;;;3.50;74.97;103278.56;5025286;28;20047;-76
2023/02/08 07:56:56;;;;;;;22.65;5.22;;;;;;;3.53;75.15;103267.47;5025298;28;20061;-75
2023/02/08 07:59:23;;;;;;;21.45;5.18;;;;;;;3.44;75.05;103256.66;5021630;28;20049;-75
2023/02/08 08:01:50;;;;;;;17.52;4.28;;;;;;;3.52;75.33;103270.88;5026215;28;20050;-75
2023/02/08 08:04:18;;;;;;;18.58;3.92;;;;;;;3.54;74.89;103275.31;5026143;28;20057;-76
2023/02/08 08:06:48;;;;;;;12.98;3.78;;;;;;;3.54;75.21;103271.84;5021711;28;20057;-76
2023/02/08 08:09:15;;;;;;;21.75;4.72;;;;;;;3.55;74.96;103276.19;5023222;28;20080;-76
2023/02/08 08:11:42;;;;;;;19.27;5.13;;;;;;;3.55;75.10;103278.78;5022599;28;20530;-76
2023/02/08 08:14:09;;;;;;;20.70;5.45;;;;;;;3.59;75.42;103281.59;5027859;28;20056;-76
2023/02/08 08:16:36;;;;;;;20.27;4.55;;;;;;;3.61;75.23;103286.81;5024909;28;20145;-75
2023/02/08 08:19:03;;;;;;;14.20;5.10;;;;;;;3.61;75.37;103284.25;5025049;28;20049;-76
2023/02/08 08:21:30;;;;;;;26.02;4.90;;;;;;;3.62;75.08;103293.78;5024543;28;20042;-76
2023/02/08 08:23:58;;;;;;;20.50;5.32;;;;;;;3.64;75.50;103291.25;5023457;28;20584;-76
2023/02/08 08:26:25;;;;;;;18.90;5.30;;;;;;;3.64;74.97;103294.72;5026288;28;20057;-76
2023/02/08 08:28:51;;;;;;;26.50;6.15;;;;;;;3.65;75.02;103293.94;5028018;28;20387;-76
2023/02/08 08:31:20;;;;;;;20.85;5.50;;;;;;;3.58;75.36;103282.38;5026686;28;20892;-75
2023/02/08 08:33:48;;;;;;;13.70;3.90;;;;;;;3.68;75.16;103307.03;5021163;28;20056;-76
2023/02/08 08:36:15;;;;;;;18.10;3.75;;;;;;;3.70;75.05;103307.06;5022773;28;20490;-76
2023/02/08 08:38:42;;;;;;;17.98;3.83;;;;;;;3.71;75.36;103306.28;5027243;28;20589;-75
2023/02/08 08:41:13;;;;;;;10.98;3.58;;;;;;;3.71;75.14;103299.41;5023457;28;20053;-75
2023/02/08 08:43:40;;;;;;;13.88;4.32;;;;;;;3.73;75.28;103305.56;5020504;28;20496;-76
2023/02/08 08:46:07;;;;;;;18.60;4.60;;;;;;;3.74;75.32;103315.06;5021980;28;20056;-76
2023/02/08 08:48:34;;;;;;;14.40;4.07;;;;;;;3.76;75.37;103315.16;5026047;28;20042;-76
2023/02/08 08:51:01;;;;;;;26.20;6.72;;;;;;;3.76;75.43;103310.88;5023195;28;20490;-76
2023/02/08 08:53:28;;;;;;;14.65;3.58;;;;;;;3.78;75.40;103303.19;5024581;28;20482;-76
2023/02/08 08:55:55;;;;;;;13.80;4.15;;;;;;;3.79;75.21;103305.88;5024141;28;20532;-76
2023/02/08 08:58:23;;;;;;;23.13;4.85;;;;;;;3.81;75.20;103298.16;5024445;28;20055;-76
2023/02/08 09:00:50;;;;;;;10.27;3.85;;;;;;;3.83;75.39;103299.13;5016829;28;20048;-75
2023/02/08 09:03:17;;;;;;;16.05;4.32;;;;;;;3.85;75.10;103291.47;5020338;28;20053;-76
2023/02/08 09:05:44;;;;;;;10.63;3.80;;;;;;;3.79;75.42;103274.84;5021849;28;20049;-76
2023/02/08 09:08:12;;;;;;;11.75;3.40;;;;;;;3.87;75.19;103295.91;5022306;28;20552;-76
2023/02/08 09:10:39;;;;;;;15.82;3.42;;;;;;;3.88;75.04;103297.69;5020866;28;20111;-76
2023/02/08 09:13:06;;;;;;;14.48;2.55;;;;;;;3.86;75.26;103298.41;5023528;28;20046;-75
2023/02/08 09:15:38;;;;;;;12.32;2.85;;;;;;;3.91;75.13;103286.59;5025179;28;20163;-75
2023/02/08 09:18:04;;;;;;;16.98;2.65;;;;;;;3.92;75.33;103283.19;5022078;28;20050;-76
2023/02/08 09:20:31;;;;;;;9.48;2.80;;;;;;;3.94;75.09;103291.91;5023824;28;20045;-76
2023/02/08 09:22:58;;;;;;;13.45;2.88;;;;;;;3.95;75.00;103294.56;5024968;28;20387;-76
2023/02/08 09:25:26;;;;;;;9.88;2.58;;;;;;;3.96;75.22;103308.41;5022326;28;21262;-75
2023/02/08 09:27:52;;;;;;;18.10;2.88;;;;;;;3.98;75.09;103299.88;5021800;28;20049;-76
2023/02/08 09:30:19;;;;;;;17.00;4.43;;;;;;;4.00;75.23;103302.56;5022961;28;20416;-75
2023/02/08 09:32:47;;;;;;;18.80;3.75;;;;;;;4.03;75.20;103307.88;5018371;28;20046;-75
2023/02/08 09:35:14;;;;;;;17.55;2.65;;;;;;;4.04;74.98;103302.78;5017590;28;20133;-76
2023/02/08 09:37:41;;;;;;;13.45;2.85;;;;;;;4.06;75.28;103302.84;5021934;28;20485;-76
2023/02/08 09:40:21;;;;;;;13.55;3.10;;;;;;;4.02;75.19;103290.59;5025229;28;20622;-76
2023/02/08 09:42:54;;;;;;;13.35;2.55;;;;;;;4.08;75.17;103303.81;5025702;28;20422;-85
2023/02/08 09:45:35;;;;;;;11.63;2.38;;;;;;;4.06;75.08;103302.84;5027290;28;20500;-87
2023/02/08 09:48:16;;;;;;;21.17;3.30;;;;;;;3.88;75.05;103269.22;5027154;28;20061;-87
2023/02/08 09:50:48;;;;;;;12.15;3.58;;;;;;;4.16;75.18;103304.22;5019930;28;20045;-76
2023/02/08 09:53:19;;;;;;;9.93;2.50;;;;;;;4.18;75.02;103311.19;5025400;28;20049;-76
2023/02/08 09:55:49;;;;;;;7.40;2.88;;;;;;;4.21;75.41;103311.38;5027482;28;20042;-78
2023/02/08 09:58:23;;;;;;;12.40;2.53;;;;;;;4.23;75.43;103314.91;5036547;28;20405;-78
2023/02/08 10:00:52;;;;;;;9.60;2.38;;;;;;;4.25;74.86;103305.53;5029458;28;20056;-78
2023/02/08 10:03:30;;;;;;;8.77;2.22;;;;;;;4.27;75.23;103303.91;5034198;28;20037;-77
2023/02/08 10:05:57;;;;;;;12.95;4.30;;;;;;;4.29;75.24;103302.25;5021642;28;20053;-80
2023/02/08 10:08:27;;;;;;;15.50;2.20;;;;;;;4.32;74.94;103303.22;5029799;28;20046;-76
2023/02/08 10:10:56;;;;;;;12.82;3.30;;;;;;;4.33;75.26;103305.03;5026168;28;20156;-76
2023/02/08 10:13:38;;;;;;;11.18;2.88;;;;;;;4.35;74.99;103303.38;5020184;28;20053;-81
2023/02/08 10:16:14;;;;;;;14.77;2.85;;;;;;;4.37;75.39;103322.44;5020336;28;20537;-76
2023/02/08 10:18:49;;;;;;;11.50;2.00;;;;;;;4.36;74.98;103312.94;5022606;28;20142;-76
2023/02/08 10:21:34;;;;;;;15.52;2.70;;;;;;;4.41;74.79;103321.78;5020480;28;20541;-74
2023/02/08 10:24:21;;;;;;;10.73;2.23;;;;;;;4.42;74.83;103308.03;5026723;28;20049;-78
2023/02/08 10:26:51;;;;;;;15.93;2.97;;;;;;;4.43;74.91;103310.69;5026428;28;20059;-79
2023/02/08 10:29:39;;;;;;;11.68;2.08;;;;;;;4.46;74.79;103309.94;5022252;28;20638;-79
2023/02/08 10:32:20;;;;;;;9.07;1.52;;;;;;;4.46;74.94;103316.00;5030347;28;20052;-79
2023/02/08 10:34:54;;;;;;;10.80;2.47;;;;;;;4.50;74.75;103306.69;5022024;28;20050;-78
2023/02/08 10:37:29;;;;;;;9.35;2.38;;;;;;;4.51;74.58;103317.13;5022841;28;20056;-79
2023/02/08 10:39:57;;;;;;;4.95;1.92;;;;;;;4.52;74.59;103318.00;5029607;28;20052;-79
2023/02/08 10:42:27;;;;;;;7.20;1.55;;;;;;;4.50;74.62;103301.53;5029561;28;20055;-79
2023/02/08 10:45:04;;;;;;;12.77;2.45;;;;;;;4.54;74.49;103298.25;5030036;28;20060;-78
2023/02/08 10:47:44;;;;;;;11.98;2.60;;;;;;;4.57;74.59;103292.34;5023581;28;20045;-79
2023/02/08 10:50:20;;;;;;;7.00;1.85;;;;;;;4.58;74.39;103288.91;5032215;28;20042;-79
2023/02/08 10:52:48;;;;;;;6.18;1.50;;;;;;;4.59;74.48;103282.94;5026759;28;20051;-79
2023/02/08 10:55:16;;;;;;;9.55;2.38;;;;;;;4.60;74.56;103288.19;5032618;28;20048;-78
2023/02/08 10:57:44;;;;;;;7.32;1.25;;;;;;;4.62;74.54;103281.38;5027145;28;20064;-79
2023/02/08 11:00:18;;;;;;;6.13;1.27;;;;;;;4.63;74.47;103264.13;5025974;28;20433;-79
2023/02/08 11:02:46;;;;;;;8.60;1.50;;;;;;;4.64;74.44;103266.81;5033226;28;20045;-79
2023/02/08 11:05:17;;;;;;;17.48;1.30;;;;;;;4.64;74.55;103253.88;5033915;28;20054;-78
2023/02/08 11:07:44;;;;;;;10.52;1.50;;;;;;;4.68;74.51;103267.84;5029184;28;20037;-78
2023/02/08 11:10:22;;;;;;;7.35;1.88;;;;;;;4.70;74.30;103273.97;5025369;28;20046;-77
2023/02/08 11:12:57;;;;;;;9.20;1.52;;;;;;;4.70;74.47;103269.69;5019697;28;20045;-78
2023/02/08 11:15:26;;;;;;;;;;;;;;;4.75;74.27;103285.41;5025410;28;20049;-77
2023/02/08 11:17:55;;;;;;;9.18;1.20;;;;;;;4.72;74.61;103270.66;5024813;28;19921;-82
2023/02/08 11:20:30;;;;;;;3.03;0.82;;;;;;;4.62;74.31;103245.13;5034955;28;20435;-85
2023/02/08 11:22:58;;;;;;;17.80;1.42;;;;;;;4.76;74.36;103256.13;5028224;28;20049;-77
2023/02/08 11:25:34;;;;;;;4.72;1.08;;;;;;;4.82;74.25;103260.69;5029561;28;20045;-83
2023/02/08 11:28:01;;;;;;;10.68;1.60;;;;;;;4.84;74.13;103259.03;5029394;28;20049;-82
2023/02/08 11:30:28;;;;;;;4.00;1.40;;;;;;;4.87;74.33;103266.97;5027615;28;20061;-75
2023/02/08 11:33:18;;;;;;;6.88;1.15;;;;;;;4.72;74.31;103231.81;5023178;28;20080;-81
2023/02/08 11:35:58;;;;;;;7.95;1.30;;;;;;;4.93;74.13;103256.88;5027052;28;20046;-83
2023/02/08 11:38:27;;;;;;;8.50;1.17;;;;;;;4.95;74.15;103252.63;5031684;28;20410;-82
2023/02/08 11:40:56;;;;;;;6.43;1.05;;;;;;;4.84;74.27;103230.56;5030871;28;20049;-84